createdAt,value
2019-01-12T00:01:09.358Z,8.68
2019-01-12T00:03:42.987Z,9.05
2019-01-12T00:06:15.968Z,7.87
2019-01-12T00:08:49.378Z,8.20
2019-01-12T00:11:22.469Z,9.20
2019-01-12T00:13:54.778Z,8.80
2019-01-12T00:16:27.610Z,8.25
2019-01-12T00:19:00.718Z,9.10
2019-01-12T00:21:34.328Z,8.85
2019-01-12T00:24:07.728Z,8.98
2019-01-12T00:26:40.488Z,9.40
2019-01-12T00:29:11.777Z,8.73
2019-01-12T00:31:45.498Z,10.03
2019-01-12T00:34:18.740Z,10.55
2019-01-12T00:36:51.478Z,10.82
2019-01-12T00:39:24.497Z,11.05
2019-01-12T00:41:57.368Z,9.90
2019-01-12T00:44:30.928Z,10.70
2019-01-12T00:47:04.728Z,11.45
2019-01-12T00:49:38.537Z,11.95
2019-01-12T00:52:12.118Z,10.55
2019-01-12T00:54:46.407Z,10.90
2019-01-12T00:57:19.959Z,11.33
2019-01-12T00:59:53.290Z,11.80
2019-01-12T01:02:25.719Z,12.03
2019-01-12T01:04:58.318Z,10.85
2019-01-12T01:07:31.258Z,11.00
2019-01-12T01:10:04.347Z,9.53
2019-01-12T01:12:39.020Z,12.20
2019-01-12T01:15:12.808Z,10.93
2019-01-12T01:17:45.138Z,10.58
2019-01-12T01:20:18.918Z,8.98
2019-01-12T01:22:53.608Z,9.75
2019-01-12T01:25:27.127Z,9.58
2019-01-12T01:28:00.087Z,9.85
2019-01-12T01:30:33.397Z,9.75
2019-01-12T01:33:07.518Z,9.25
2019-01-12T01:35:41.157Z,11.35
2019-01-12T01:38:14.678Z,10.28
2019-01-12T01:40:47.258Z,9.40
2019-01-12T01:43:20.237Z,11.08
2019-01-12T01:45:54.067Z,10.93
2019-01-12T01:48:27.718Z,9.83
2019-01-12T01:51:01.058Z,10.70
2019-01-12T01:53:34.558Z,11.03
2019-01-12T01:56:07.838Z,11.93
2019-01-12T01:58:41.698Z,11.28
2019-01-12T02:01:15.079Z,11.33
2019-01-12T02:03:48.968Z,10.70
2019-01-12T02:06:22.529Z,10.65
2019-01-12T02:08:56.097Z,10.13
2019-01-12T02:11:28.967Z,11.50
2019-01-12T02:14:01.987Z,10.45
2019-01-12T02:16:35.518Z,11.95
2019-01-12T02:19:08.538Z,12.13
2019-01-12T02:21:42.182Z,12.03
2019-01-12T02:24:15.228Z,10.68
2019-01-12T02:26:48.492Z,10.85
2019-01-12T02:29:20.918Z,9.90
2019-01-12T02:31:53.780Z,10.60
2019-01-12T02:34:26.818Z,11.93
2019-01-12T02:37:00.579Z,8.73
2019-01-12T02:39:33.638Z,9.60
2019-01-12T02:42:07.037Z,8.50
2019-01-12T02:44:39.208Z,7.97
2019-01-12T02:47:11.888Z,7.65
2019-01-12T02:49:45.127Z,7.45
2019-01-12T02:52:18.099Z,7.33
2019-01-12T02:54:50.590Z,8.38
2019-01-12T02:57:23.461Z,8.23
2019-01-12T02:59:56.088Z,9.15
2019-01-12T03:02:30.038Z,9.83
2019-01-12T03:05:02.778Z,8.80
2019-01-12T03:07:35.438Z,9.63
2019-01-12T03:10:09.430Z,8.58
2019-01-12T03:12:42.559Z,8.80
2019-01-12T03:15:16.579Z,10.08
2019-01-12T03:17:49.337Z,10.40
2019-01-12T03:20:22.438Z,9.73
2019-01-12T03:22:55.820Z,8.68
2019-01-12T03:25:29.037Z,10.15
2019-01-12T03:28:02.399Z,9.95
2019-01-12T03:30:36.550Z,9.83
2019-01-12T03:33:10.391Z,10.50
2019-01-12T03:35:41.401Z,10.58
2019-01-12T03:38:15.188Z,10.08
2019-01-12T03:40:48.443Z,10.88
2019-01-12T03:43:22.074Z,11.30
2019-01-12T03:45:55.768Z,12.70
2019-01-12T03:48:28.962Z,10.60
2019-01-12T03:51:02.528Z,10.93
2019-01-12T03:53:35.097Z,10.10
2019-01-12T03:56:08.237Z,8.68
2019-01-12T03:58:41.307Z,8.38
2019-01-12T04:01:14.748Z,10.43
2019-01-12T04:03:48.698Z,9.90
2019-01-12T04:06:21.578Z,10.20
2019-01-12T04:08:54.667Z,10.08
2019-01-12T04:11:27.788Z,10.40
2019-01-12T04:14:00.598Z,10.75
2019-01-12T04:16:33.309Z,11.30
2019-01-12T04:19:06.368Z,11.50
2019-01-12T04:21:39.619Z,11.33
2019-01-12T04:24:12.708Z,12.55
2019-01-12T04:26:47.087Z,11.60
2019-01-12T04:29:20.487Z,13.30
2019-01-12T04:31:54.038Z,14.10
2019-01-12T04:34:27.630Z,13.38
2019-01-12T04:37:01.217Z,13.55
2019-01-12T04:39:33.718Z,14.90
2019-01-12T04:42:07.478Z,13.95
2019-01-12T04:44:40.549Z,14.40
2019-01-12T04:47:13.567Z,15.50
2019-01-12T04:49:47.489Z,15.55
2019-01-12T04:52:20.299Z,16.25
2019-01-12T04:54:53.619Z,15.75
2019-01-12T04:57:26.948Z,14.95
2019-01-12T05:00:00.998Z,15.65
2019-01-12T05:02:34.357Z,14.13
2019-01-12T05:05:07.323Z,15.60
2019-01-12T05:07:40.148Z,16.57
2019-01-12T05:10:13.561Z,16.30
2019-01-12T05:12:46.836Z,17.00
2019-01-12T05:15:19.338Z,16.35
2019-01-12T05:17:52.048Z,16.27
2019-01-12T05:20:25.778Z,14.07
2019-01-12T05:22:59.487Z,13.20
2019-01-12T05:25:32.508Z,22.85
2019-01-12T05:28:05.604Z,14.60
2019-01-12T05:30:39.198Z,14.98
2019-01-12T05:33:12.759Z,16.27
2019-01-12T05:35:46.098Z,13.20
2019-01-12T05:38:18.639Z,16.10
2019-01-12T05:40:51.458Z,18.48
2019-01-12T05:43:24.358Z,14.20
2019-01-12T05:45:58.546Z,15.43
2019-01-12T05:48:31.595Z,16.73
2019-01-12T05:51:04.909Z,14.70
2019-01-12T05:53:37.707Z,13.48
2019-01-12T05:56:10.079Z,15.65
2019-01-12T05:58:44.037Z,38.20
2019-01-12T06:01:16.987Z,17.32
2019-01-12T06:03:51.217Z,16.80
2019-01-12T06:06:24.196Z,16.55
2019-01-12T06:08:58.067Z,16.35
2019-01-12T06:11:31.487Z,17.27
2019-01-12T06:14:05.048Z,17.50
2019-01-12T06:16:39.217Z,20.12
2019-01-12T06:19:12.528Z,17.55
2019-01-12T06:21:45.558Z,19.12
2019-01-12T06:24:17.858Z,17.75
2019-01-12T06:26:51.337Z,17.80
2019-01-12T06:29:24.436Z,15.23
2019-01-12T06:31:57.457Z,14.43
2019-01-12T06:34:30.508Z,15.85
2019-01-12T06:37:03.829Z,14.45
2019-01-12T06:39:36.811Z,14.30
2019-01-12T06:42:09.840Z,15.43
2019-01-12T06:44:42.528Z,13.90
2019-01-12T06:47:15.808Z,12.95
2019-01-12T06:49:49.358Z,15.65
2019-01-12T06:52:22.887Z,11.95
2019-01-12T06:54:56.468Z,13.00
2019-01-12T06:57:30.076Z,14.65
2019-01-12T07:00:02.387Z,13.78
2019-01-12T07:02:35.607Z,14.63
2019-01-12T07:05:09.637Z,13.28
2019-01-12T07:07:42.638Z,13.58
2019-01-12T07:10:17.010Z,12.37
2019-01-12T07:12:50.779Z,11.83
2019-01-12T07:15:24.127Z,11.57
2019-01-12T07:17:59.599Z,11.40
2019-01-12T07:20:32.876Z,10.65
2019-01-12T07:23:06.156Z,10.93
2019-01-12T07:25:37.947Z,12.18
2019-01-12T07:28:10.658Z,12.68
2019-01-12T07:30:43.857Z,13.60
2019-01-12T07:33:17.413Z,17.67
2019-01-12T07:35:50.609Z,11.90
2019-01-12T07:38:24.117Z,12.35
2019-01-12T07:40:57.298Z,16.25
2019-01-12T07:43:30.299Z,13.05
2019-01-12T07:46:02.680Z,13.62
2019-01-12T07:48:35.156Z,12.88
2019-01-12T07:51:08.818Z,12.93
2019-01-12T07:53:43.043Z,11.75
2019-01-12T08:08:11.493Z,9.30
2019-01-12T08:10:44.572Z,9.98
2019-01-12T08:13:17.932Z,10.15
2019-01-12T08:15:51.232Z,10.28
2019-01-12T08:18:23.394Z,9.88
2019-01-12T08:20:56.292Z,8.25
2019-01-12T08:23:29.012Z,7.97
2019-01-12T08:26:02.311Z,9.75
2019-01-12T08:28:34.690Z,11.95
2019-01-12T08:31:07.252Z,9.45
2019-01-12T08:33:40.355Z,12.28
2019-01-12T08:36:12.454Z,10.70
2019-01-12T08:38:45.312Z,13.20
2019-01-12T08:41:18.252Z,11.35
2019-01-12T08:43:50.874Z,10.90
2019-01-12T08:46:23.233Z,10.53
2019-01-12T08:48:56.157Z,9.30
2019-01-12T08:51:29.572Z,16.00
2019-01-12T08:54:03.132Z,8.73
2019-01-12T08:56:38.429Z,11.25
2019-01-12T08:59:10.632Z,11.22
2019-01-12T09:01:44.272Z,10.18
2019-01-12T09:04:16.292Z,9.23
2019-01-12T09:06:48.792Z,10.95
2019-01-12T09:09:21.496Z,10.95
2019-01-12T09:11:53.532Z,13.00
2019-01-12T09:14:25.914Z,14.13
2019-01-12T09:16:59.772Z,15.15
2019-01-12T09:19:32.831Z,9.58
2019-01-12T09:22:05.696Z,8.98
2019-01-12T09:24:37.954Z,9.75
2019-01-12T09:27:11.052Z,9.70
2019-01-12T09:29:42.921Z,14.35
2019-01-12T09:32:15.972Z,13.70
2019-01-12T09:34:55.993Z,9.30
2019-01-12T09:37:28.896Z,11.22
2019-01-12T09:40:01.682Z,11.08
2019-01-12T09:42:34.933Z,10.90
2019-01-12T09:45:09.732Z,13.32
2019-01-12T09:47:42.533Z,15.03
2019-01-12T09:50:17.152Z,13.48
2019-01-12T09:52:50.294Z,14.35
2019-01-12T09:55:23.040Z,15.03
2019-01-12T09:57:55.733Z,14.13
2019-01-12T10:00:28.974Z,13.15
2019-01-12T10:03:01.874Z,11.73
2019-01-12T10:05:34.912Z,10.40
2019-01-12T10:08:07.412Z,10.00
2019-01-12T10:10:40.372Z,12.65
2019-01-12T10:13:13.074Z,10.58
2019-01-12T10:15:45.913Z,14.15
2019-01-12T10:18:18.233Z,13.40
2019-01-12T10:20:51.173Z,16.77
2019-01-12T10:23:24.513Z,15.32
2019-01-12T10:25:56.787Z,60.12
2019-01-12T10:28:29.018Z,16.97
2019-01-12T10:31:01.931Z,14.55
2019-01-12T10:33:35.008Z,19.35
2019-01-12T10:36:08.059Z,16.97
2019-01-12T10:38:40.620Z,17.52
2019-01-12T10:41:12.814Z,18.82
2019-01-12T10:43:46.078Z,19.07
2019-01-12T10:46:18.647Z,17.82
2019-01-12T10:48:50.762Z,22.95
2019-01-12T10:51:23.784Z,22.15
2019-01-12T10:53:56.565Z,26.02
2019-01-12T10:56:29.025Z,26.65
2019-01-12T10:59:01.824Z,24.18
2019-01-12T11:01:34.606Z,25.00
2019-01-12T11:04:06.905Z,24.65
2019-01-12T11:06:39.064Z,21.20
2019-01-12T11:09:13.405Z,18.82
2019-01-12T11:11:46.213Z,20.77
2019-01-12T11:14:19.281Z,29.07
2019-01-12T11:16:51.499Z,28.95
2019-01-12T11:19:23.443Z,22.37
2019-01-12T11:21:58.645Z,23.05
2019-01-12T11:24:31.377Z,20.57
2019-01-12T11:27:04.246Z,20.80
2019-01-12T11:29:36.806Z,25.08
2019-01-12T11:32:09.655Z,26.55
2019-01-12T11:34:42.048Z,20.65
2019-01-12T11:37:14.309Z,20.52
2019-01-12T11:39:47.025Z,24.12
2019-01-12T11:42:19.446Z,23.12
2019-01-12T11:44:51.245Z,21.73
2019-01-12T11:47:23.927Z,22.52
2019-01-12T11:49:56.152Z,22.17
2019-01-12T11:52:28.872Z,19.05
2019-01-12T11:55:01.812Z,18.50
2019-01-12T11:57:34.132Z,19.45
2019-01-12T12:00:09.909Z,19.87
2019-01-12T12:02:42.389Z,43.13
2019-01-12T12:05:14.948Z,19.45
2019-01-12T12:07:47.210Z,20.20
2019-01-12T12:10:20.410Z,18.73
2019-01-12T12:12:53.456Z,17.00
2019-01-12T12:15:27.138Z,19.40
2019-01-12T12:18:00.368Z,17.48
2019-01-12T12:20:31.369Z,42.62
2019-01-12T12:23:04.588Z,16.82
2019-01-12T12:25:37.868Z,16.12
2019-01-12T12:28:10.672Z,16.55
2019-01-12T12:30:43.048Z,15.45
2019-01-12T12:33:15.368Z,15.25
2019-01-12T12:35:48.891Z,14.38
2019-01-12T12:38:21.068Z,14.83
2019-01-12T12:40:54.269Z,12.93
2019-01-12T12:43:26.888Z,12.13
2019-01-12T12:45:59.751Z,14.98
2019-01-12T12:48:32.478Z,13.68
2019-01-12T12:51:05.655Z,15.20
2019-01-12T12:53:38.016Z,13.55
2019-01-12T12:56:10.265Z,13.15
2019-01-12T12:58:43.036Z,14.90
2019-01-12T13:01:16.256Z,16.87
2019-01-12T13:03:48.836Z,14.55
2019-01-12T13:06:21.756Z,14.58
2019-01-12T13:08:54.076Z,15.03
2019-01-12T13:11:27.576Z,14.83
2019-01-12T13:14:00.430Z,17.77
2019-01-12T13:16:32.981Z,22.20
2019-01-12T13:19:05.233Z,25.25
2019-01-12T13:21:37.912Z,18.27
2019-01-12T13:24:10.925Z,14.90
2019-01-12T13:26:44.344Z,15.25
2019-01-12T13:29:17.086Z,14.10
2019-01-12T13:31:48.442Z,12.45
2019-01-12T13:34:21.305Z,12.55
2019-01-12T13:36:53.225Z,14.18
2019-01-12T13:39:31.860Z,12.80
2019-01-12T13:42:00.346Z,16.77
2019-01-12T13:44:33.405Z,13.10
2019-01-12T13:47:06.025Z,12.70
2019-01-12T13:49:38.468Z,16.48
2019-01-12T13:52:11.167Z,13.28
2019-01-12T13:54:44.578Z,13.30
2019-01-12T13:57:17.949Z,14.63
2019-01-12T13:59:51.227Z,14.65
2019-01-12T14:02:24.708Z,14.28
2019-01-12T14:04:58.605Z,13.95
2019-01-12T14:07:31.104Z,12.37
2019-01-12T14:10:03.866Z,13.08
2019-01-12T14:12:36.864Z,13.75
2019-01-12T14:15:11.646Z,13.48
2019-01-12T14:17:46.624Z,12.60
2019-01-12T14:20:23.846Z,15.72
2019-01-12T14:22:56.766Z,14.68
2019-01-12T14:25:28.745Z,14.10
2019-01-12T14:28:01.125Z,14.20
2019-01-12T14:30:33.825Z,17.12
2019-01-12T14:33:07.167Z,14.73
2019-01-12T14:35:40.565Z,14.20
2019-01-12T14:38:13.885Z,14.10
2019-01-12T14:40:46.045Z,14.75
2019-01-12T14:43:19.126Z,13.25
2019-01-12T14:45:51.645Z,12.65
2019-01-12T14:48:24.727Z,13.98
2019-01-12T14:50:56.924Z,18.45
2019-01-12T14:53:29.405Z,29.15
2019-01-12T14:56:01.726Z,13.45
2019-01-12T14:58:34.398Z,13.72
2019-01-12T15:01:07.249Z,13.98
2019-01-12T15:03:40.765Z,11.38
2019-01-12T15:06:13.758Z,12.45
2019-01-12T15:08:46.087Z,14.07
2019-01-12T15:11:18.930Z,11.05
2019-01-12T15:13:52.066Z,11.50
2019-01-12T15:16:25.126Z,11.63
2019-01-12T15:18:57.385Z,13.50
2019-01-12T15:21:29.785Z,13.25
2019-01-12T15:24:02.365Z,11.35
2019-01-12T15:26:35.924Z,12.45
2019-01-12T15:29:09.305Z,12.07
2019-01-12T15:31:41.807Z,10.63
2019-01-12T15:34:13.866Z,11.95
2019-01-12T15:36:46.748Z,13.88
2019-01-12T15:39:19.825Z,18.98
2019-01-12T15:41:52.505Z,14.30
2019-01-12T15:44:25.527Z,13.85
2019-01-12T15:46:58.598Z,19.62
2019-01-12T15:49:31.140Z,14.07
2019-01-12T15:52:03.496Z,15.23
2019-01-12T15:54:36.085Z,13.00
2019-01-12T15:57:08.660Z,11.60
2019-01-12T15:59:41.139Z,15.23
2019-01-12T16:02:14.360Z,13.50
2019-01-12T16:04:47.979Z,13.35
2019-01-12T16:07:20.502Z,12.45
2019-01-12T16:09:52.979Z,38.70
2019-01-12T16:12:25.679Z,14.65
2019-01-12T16:14:57.959Z,11.33
2019-01-12T16:17:31.139Z,13.70
2019-01-12T16:20:03.799Z,8.50
2019-01-12T16:22:52.301Z,9.28
2019-01-12T16:25:25.199Z,8.98
2019-01-12T16:27:57.620Z,8.58
2019-01-12T16:30:30.019Z,10.32
2019-01-12T16:33:03.384Z,9.55
2019-01-12T16:35:36.259Z,6.53
2019-01-12T16:38:08.919Z,9.75
2019-01-12T16:40:40.959Z,11.83
2019-01-12T16:43:12.659Z,11.93
2019-01-12T16:45:44.539Z,11.60
2019-01-12T16:48:18.161Z,10.45
2019-01-12T16:50:52.029Z,13.28
2019-01-12T16:53:25.280Z,15.45
2019-01-12T16:55:57.780Z,9.90
2019-01-12T16:58:30.925Z,8.63
2019-01-12T17:01:03.499Z,10.00
2019-01-12T17:03:36.688Z,7.62
2019-01-12T17:06:09.739Z,9.33
2019-01-12T17:08:42.207Z,11.60
2019-01-12T17:11:14.700Z,11.30
2019-01-12T17:13:47.986Z,19.35
2019-01-12T17:16:20.059Z,15.63
2019-01-12T17:18:52.599Z,15.63
2019-01-12T17:21:25.840Z,12.18
2019-01-12T17:23:58.881Z,10.15
2019-01-12T17:26:32.279Z,10.80
2019-01-12T17:29:05.500Z,11.25
2019-01-12T17:31:37.819Z,13.00
2019-01-12T17:34:10.267Z,12.07
2019-01-12T17:36:43.459Z,9.43
2019-01-12T17:39:16.097Z,10.38
2019-01-12T17:41:48.441Z,9.63
2019-01-12T17:44:21.090Z,10.55
2019-01-12T17:46:54.809Z,10.20
2019-01-12T17:49:27.850Z,9.88
2019-01-12T17:51:59.831Z,9.60
2019-01-12T17:54:32.290Z,8.68
2019-01-12T17:57:05.149Z,9.23
2019-01-12T17:59:37.653Z,9.55
2019-01-12T18:02:11.051Z,8.50
2019-01-12T18:04:44.130Z,7.40
2019-01-12T18:07:16.969Z,8.85
2019-01-12T18:09:49.730Z,8.63
2019-01-12T18:12:22.690Z,7.22
2019-01-12T18:14:55.751Z,7.75
2019-01-12T18:17:29.331Z,7.97
2019-01-12T18:20:02.591Z,6.83
2019-01-12T18:22:36.422Z,6.12
2019-01-12T18:25:11.051Z,6.92
2019-01-12T18:27:44.290Z,5.75
2019-01-12T18:30:19.230Z,6.95
2019-01-12T18:32:51.530Z,7.30
2019-01-12T18:35:24.252Z,5.80
2019-01-12T18:37:56.330Z,8.05
2019-01-12T18:40:29.292Z,7.12
2019-01-12T18:43:01.534Z,8.85
2019-01-12T18:45:34.011Z,8.08
2019-01-12T18:48:06.669Z,7.00
2019-01-12T18:50:39.549Z,11.45
2019-01-12T18:53:12.054Z,7.70
2019-01-12T18:55:45.529Z,8.03
2019-01-12T18:58:18.289Z,7.83
2019-01-12T19:00:51.170Z,7.70
2019-01-12T19:03:23.132Z,17.65
2019-01-12T19:05:55.690Z,10.70
2019-01-12T19:08:29.090Z,7.15
2019-01-12T19:11:02.169Z,7.80
2019-01-12T19:13:34.271Z,7.65
2019-01-12T19:16:06.589Z,6.92
2019-01-12T19:18:38.610Z,6.50
2019-01-12T19:21:11.709Z,7.35
2019-01-12T19:23:44.331Z,14.65
2019-01-12T19:26:16.649Z,8.60
2019-01-12T19:28:49.411Z,10.82
2019-01-12T19:31:22.271Z,10.85
2019-01-12T19:33:55.111Z,7.87
2019-01-12T19:36:27.550Z,7.80
2019-01-12T19:38:59.809Z,7.58
2019-01-12T19:41:32.310Z,14.68
2019-01-12T19:44:04.912Z,8.83
2019-01-12T19:46:37.871Z,9.30
2019-01-12T19:49:11.632Z,9.00
2019-01-12T19:51:44.351Z,8.40
2019-01-12T19:54:17.571Z,8.63
2019-01-12T19:56:51.189Z,8.10
2019-01-12T19:59:23.669Z,7.58
2019-01-12T20:01:56.773Z,6.80
2019-01-12T20:04:29.050Z,7.60
2019-01-12T20:07:02.469Z,8.20
2019-01-12T20:09:35.270Z,10.93
2019-01-12T20:12:07.994Z,8.63
2019-01-12T20:14:40.989Z,12.05
2019-01-12T20:17:13.530Z,9.75
2019-01-12T20:19:45.590Z,9.20
2019-01-12T20:22:18.330Z,7.12
2019-01-12T20:24:52.691Z,9.93
2019-01-12T20:27:25.570Z,8.63
2019-01-12T20:29:59.048Z,8.18
2019-01-12T20:32:48.690Z,7.53
2019-01-12T20:36:13.230Z,9.10
2019-01-12T20:39:46.229Z,8.95
2019-01-12T20:42:36.749Z,11.12
2019-01-12T20:45:51.330Z,9.33
2019-01-12T20:49:01.470Z,7.90
2019-01-12T20:52:09.190Z,11.20
2019-01-12T20:55:17.865Z,10.05
2019-01-12T20:58:26.630Z,7.72
2019-01-12T21:01:45.411Z,10.82
2019-01-12T21:04:46.690Z,7.65
2019-01-12T21:07:58.170Z,6.90
2019-01-12T21:11:18.350Z,8.10
2019-01-12T21:14:33.929Z,6.65
2019-01-12T21:17:09.090Z,8.03
2019-01-12T21:19:47.743Z,7.25
2019-01-12T21:22:15.649Z,7.47
2019-01-12T21:24:47.870Z,8.25
2019-01-12T21:27:20.912Z,8.55
2019-01-12T21:29:53.510Z,8.58
2019-01-12T21:32:25.691Z,9.38
2019-01-12T21:34:58.319Z,8.93
2019-01-12T21:37:32.291Z,8.85
2019-01-12T21:40:12.010Z,10.68
2019-01-12T21:42:43.917Z,11.48
2019-01-12T21:45:16.910Z,12.28
2019-01-12T21:47:49.911Z,13.22
2019-01-12T21:50:22.630Z,11.70
2019-01-12T21:52:54.689Z,11.85
2019-01-12T21:55:28.010Z,12.05
2019-01-12T21:58:00.870Z,11.70
2019-01-12T22:00:34.393Z,11.22
2019-01-12T22:03:07.489Z,13.13
2019-01-12T22:05:40.170Z,13.40
2019-01-12T22:08:12.769Z,12.50
2019-01-12T22:10:46.010Z,13.28
2019-01-12T22:13:19.111Z,11.60
2019-01-12T22:15:52.472Z,10.10
2019-01-12T22:18:25.530Z,11.60
2019-01-12T22:20:58.492Z,11.03
2019-01-12T22:23:31.130Z,10.20
2019-01-12T22:26:03.554Z,10.03
2019-01-12T22:28:37.230Z,10.00
2019-01-12T22:31:10.177Z,9.03
2019-01-12T22:33:43.290Z,8.90
2019-01-12T22:36:16.231Z,9.20
2019-01-12T22:38:48.291Z,8.80
2019-01-12T22:41:20.490Z,9.05
2019-01-12T22:43:52.793Z,7.40
2019-01-12T22:46:25.971Z,7.10
2019-01-12T22:48:58.492Z,7.70
2019-01-12T22:51:30.810Z,7.37
2019-01-12T22:54:03.210Z,6.50
2019-01-12T22:56:35.989Z,6.08
2019-01-12T22:59:09.309Z,5.87
2019-01-12T23:02:01.509Z,6.45
2019-01-12T23:04:34.630Z,6.72
2019-01-12T23:07:11.573Z,6.37
2019-01-12T23:09:42.930Z,6.22
2019-01-12T23:12:15.393Z,8.00
2019-01-12T23:14:49.929Z,6.20
2019-01-12T23:17:23.389Z,7.47
2019-01-12T23:19:56.071Z,7.00
2019-01-12T23:22:27.869Z,8.20
2019-01-12T23:25:01.050Z,6.60
2019-01-12T23:27:33.810Z,6.20
2019-01-12T23:30:08.111Z,4.92
2019-01-12T23:32:41.450Z,4.87
2019-01-12T23:35:14.571Z,4.80
2019-01-12T23:37:46.850Z,6.42
2019-01-12T23:40:20.150Z,3.92
2019-01-12T23:42:52.854Z,4.83
2019-01-12T23:45:26.150Z,4.90
2019-01-12T23:47:58.290Z,4.70
2019-01-12T23:50:30.810Z,5.90
2019-01-12T23:53:03.973Z,4.10
2019-01-12T23:55:36.289Z,3.77
2019-01-12T23:58:09.090Z,3.30
